Swissvale, Colorado
Current Conditions -  °F | °C
As of 11:15 PM on Wednesday 28 Jan 2015 (Local Time) from KANK Reporting Station
Clear Clear  
Wind Chill: 32°   Ceiling: Unl
Heat Index: 32°   Visibility: 10mi
Dew Point: 20°   Wind: 3mph
Humidity: 62%   Direction: 240°WSW
Pressure: 30.41"   Gusts: NA
Location:  38.5561°N, 106.066°W
Report Text: KANK 290615Z AUTO 24003KT 10SM CLR 00/M07 A3041 RMK AO1 T10021067
Loading
Personal Weather Stations






























Interactive Weather Map New forecast layout! Learn more

10-Day Weather Forecast

Advertisements
Track Severe Weather on mobile